Hayataka Maru — JJ4041 — position and weather

sailwx.info

Track history (hours):
 
Tides and Currents Weather Stations Pressure Air Temp Water Temp Dewpoint Dewpoint Depression Visibility Wind Speed Wind Dir Waves Ship Positions

Hayataka Maru

Last reported at 2017-Dec-16 08:36 UTC. Time now 2017-Dec-16 20:57 UTC.
Position N 34°46' E 134°39'.

Length 37 m.

MMSI: 431301625.

Date/timePositionNaut miles runAvg speedWind from/ knotsBaromVisibWave heightAir tempDewpointWater temp
2017-Dec-16 08:36N 34°46' E 134°39'14 9.6
2017-Dec-16 07:09N 34°45' E 134°22'0 0.3
2017-Dec-16 06:55N 34°45' E 134°22'5 5.6
2017-Dec-16 06:02N 34°43' E 134°28'010.7
2017-Dec-16 06:00N 34°43' E 134°28'611.1
2017-Dec-16 05:30N 34°44' E 134°35'4 1.1
2017-Dec-16 01:56N 34°46' E 134°39'1 0.7
2017-Dec-16 00:04N 34°47' E 134°38'0 0.0
2017-Dec-15 22:59N 34°47' E 134°38'0 0.3
2017-Dec-15 22:20N 34°47' E 134°38'1 4.2
2017-Dec-15 22:00N 34°45' E 134°38'9 0.9
2017-Dec-15 12:08N 34°42' E 134°48'1 9.4
2017-Dec-15 12:00N 34°41' E 134°49'1 0.9
2017-Dec-15 10:31N 34°42' E 134°50'0 1.4
2017-Dec-15 10:30N 34°42' E 134°50'3 5.3
2017-Dec-15 10:00N 34°40' E 134°48'1 1.2
2017-Dec-15 09:30N 34°40' E 134°47'4 2.1
2017-Dec-15 07:39N 34°43' E 134°51'1 2.2
2017-Dec-15 07:23N 34°43' E 134°50'0 0.0
2017-Dec-15 06:52N 34°43' E 134°50'0 0.6
2017-Dec-15 06:28N 34°43' E 134°50'10 0.5
2017-Dec-14 09:25N 34°46' E 134°39'1 1.6
2017-Dec-14 08:55N 34°47' E 134°38'1 1.0
2017-Dec-14 08:22N 34°46' E 134°38'2 5.0
2017-Dec-14 07:58N 34°44' E 134°38'2 5.3
2017-Dec-14 07:30N 34°47' E 134°38'1 0.0
2017-Dec-13 09:01N 34°46' E 134°39'510.4
2017-Dec-13 08:34N 34°44' E 134°44'311.3
2017-Dec-13 08:18N 34°42' E 134°47'3 9.1
2017-Dec-13 08:00N 34°42' E 134°50'2 4.5
2017-Dec-13 07:30N 34°40' E 134°48'4 8.4
2017-Dec-13 07:00N 34°42' E 134°44'2 2.2
2017-Dec-13 06:14N 34°43' E 134°46'310.3
2017-Dec-13 05:58N 34°41' E 134°49'2 4.6
2017-Dec-13 05:30N 34°43' E 134°50'0 0.2
2017-Dec-13 05:00N 34°43' E 134°51'3 6.2
2017-Dec-13 04:30N 34°40' E 134°48'1 2.5
2017-Dec-13 04:00N 34°40' E 134°47'611.8
2017-Dec-13 03:30N 34°44' E 134°41'1 1.6
2017-Dec-13 02:35N 34°46' E 134°41'2 5.8
2017-Dec-13 02:17N 34°46' E 134°39'0 1.8
2017-Dec-13 02:00N 34°46' E 134°39'7 7.6
2017-Dec-13 01:08N 34°42' E 134°46'110.6
2017-Dec-13 01:00N 34°42' E 134°47'3 5.9
2017-Dec-13 00:31N 34°43' E 134°51'0 0.2
2017-Dec-13 00:00N 34°43' E 134°51'2 4.3
2017-Dec-12 23:30N 34°41' E 134°49'4 6.6
2017-Dec-12 22:58N 34°44' E 134°47'1 1.4
2017-Dec-12 22:27N 34°44' E 134°48'1 2.3
2017-Dec-12 21:59N 34°43' E 134°49'0 0.0
2017-Dec-12 21:30N 34°43' E 134°49'0 0.1
2017-Dec-12 20:47N 34°43' E 134°48'2 7.4
2017-Dec-12 20:30N 34°43' E 134°46'610.3
2017-Dec-12 19:53N 34°46' E 134°39'1 0.0
2017-Dec-12 06:24N 34°46' E 134°39'2 1.3
2017-Dec-12 04:51N 34°46' E 134°41'0 0.4
2017-Dec-12 04:28N 34°46' E 134°41'3 7.2
2017-Dec-12 04:00N 34°42' E 134°41'2 4.9
2017-Dec-12 03:30N 34°40' E 134°41'1 2.2
2017-Dec-12 03:01N 34°41' E 134°41'5 4.0
2017-Dec-12 01:41N 34°46' E 134°39'2 9.6
2017-Dec-12 01:30N 34°45' E 134°41'1 0.6
2017-Dec-12 00:33N 34°46' E 134°41'1 6.4
2017-Dec-12 00:25N 34°46' E 134°40'2 5.7
2017-Dec-12 00:00N 34°46' E 134°38'1 1.7
2017-Dec-11 23:26N 34°46' E 134°38'2 0.1
2017-Dec-11 04:41N 34°46' E 134°41'1 3.6
2017-Dec-11 04:29N 34°45' E 134°41'4 7.9
2017-Dec-11 04:00N 34°41' E 134°41'1 2.6
2017-Dec-11 03:30N 34°40' E 134°41'4 7.1
2017-Dec-11 02:59N 34°43' E 134°40'3 0.1
2017-Dec-09 10:42N 34°46' E 134°39'33 4.0
2017-Dec-09 02:27N 34°31' E 134°03'1612.3
2017-Dec-09 01:09N 34°39' E 134°20'411.7
2017-Dec-09 00:49N 34°40' E 134°24'411.6
2017-Dec-09 00:29N 34°42' E 134°28'611.4
2017-Dec-08 23:59N 34°44' E 134°35'4 0.2
2017-Dec-08 05:43N 34°46' E 134°39'2 7.9
2017-Dec-08 05:28N 34°45' E 134°41'1 0.5
2017-Dec-08 04:33N 34°46' E 134°41'0 0.3
2017-Dec-08 04:27N 34°46' E 134°41'0 0.4
2017-Dec-08 04:00N 34°46' E 134°41'0 0.1
2017-Dec-08 03:21N 34°46' E 134°41'0 0.1
2017-Dec-08 02:57N 34°46' E 134°41'0 0.2
2017-Dec-08 02:29N 34°46' E 134°41'0 0.0
2017-Dec-08 01:18N 34°46' E 134°41'0 0.0
2017-Dec-08 01:00N 34°46' E 134°41'0 0.0
2017-Dec-08 00:30N 34°46' E 134°41'0 0.0
2017-Dec-07 23:59N 34°46' E 134°41'0 0.1
2017-Dec-07 23:31N 34°46' E 134°41'0 0.0
2017-Dec-07 22:53N 34°46' E 134°41'0 0.0
2017-Dec-07 22:30N 34°46' E 134°41'0 0.0
2017-Dec-07 21:58N 34°46' E 134°41'0 0.2
2017-Dec-07 21:27N 34°46' E 134°41'0 0.2
2017-Dec-07 20:57N 34°46' E 134°41'0 0.0
2017-Dec-07 20:28N 34°46' E 134°41'0 0.2
2017-Dec-07 20:00N 34°46' E 134°41'0 0.0
2017-Dec-07 19:26N 34°46' E 134°41'0 0.1
2017-Dec-07 18:53N 34°46' E 134°41'0 0.1
2017-Dec-07 18:25N 34°46' E 134°41'0 0.0
2017-Dec-07 17:48N 34°46' E 134°41'0 0.4
2017-Dec-07 17:27N 34°46' E 134°41'0 0.2
2017-Dec-07 16:56N 34°46' E 134°41'0 0.1
2017-Dec-07 16:27N 34°46' E 134°41'0 0.0
2017-Dec-07 15:51N 34°46' E 134°41'0 0.1
2017-Dec-07 14:53N 34°46' E 134°41'0 0.1
2017-Dec-07 14:23N 34°46' E 134°41'0 0.0
2017-Dec-07 14:00N 34°46' E 134°41'0 0.1
2017-Dec-07 13:25N 34°46' E 134°41'0 0.1
2017-Dec-07 12:46N 34°46' E 134°41'0 0.1
2017-Dec-07 12:26N 34°46' E 134°41'0 0.0
2017-Dec-07 11:55N 34°46' E 134°41'0 0.1
2017-Dec-07 11:27N 34°46' E 134°41'0 0.2
2017-Dec-07 10:53N 34°46' E 134°41'0 0.1
2017-Dec-07 10:29N 34°46' E 134°41'0 0.0
2017-Dec-07 09:55N 34°46' E 134°41'0 0.2
2017-Dec-07 09:27N 34°46' E 134°41'0 0.1
2017-Dec-07 08:59N 34°46' E 134°41'0 0.1
2017-Dec-07 08:25N 34°46' E 134°41'0 0.1
2017-Dec-07 08:00N 34°46' E 134°41'0 0.0
2017-Dec-07 07:30N 34°46' E 134°41'0 0.1
2017-Dec-07 06:58N 34°46' E 134°41'0 0.0
2017-Dec-07 06:27N 34°46' E 134°41'0 0.3
2017-Dec-07 05:57N 34°46' E 134°41'0 0.1
2017-Dec-07 04:29N 34°46' E 134°41'3 5.4
2017-Dec-07 04:00N 34°43' E 134°41'3 6.8
2017-Dec-07 03:30N 34°40' E 134°41'2 4.9
2017-Dec-07 03:00N 34°42' E 134°40'4 7.5
2017-Dec-07 02:29N 34°46' E 134°39'2 3.5
2017-Dec-07 01:55N 34°46' E 134°41'1 1.7
2017-Dec-07 01:19N 34°46' E 134°40'1 1.3
2017-Dec-07 00:38N 34°46' E 134°39'0 0.1
2017-Dec-07 00:30N 34°46' E 134°39'1 2.5
2017-Dec-06 23:59N 34°46' E 134°38'0 0.2
2017-Dec-06 23:25N 34°46' E 134°38'1 1.1
2017-Dec-06 22:48N 34°47' E 134°38'1 5.2
2017-Dec-06 22:30N 34°45' E 134°37'2 3.4
2017-Dec-06 22:01N 34°44' E 134°39'  
Track history (hours):
 
Tides and Currents Weather Stations Pressure Air Temp Water Temp Dewpoint Dewpoint Depression Visibility Wind Speed Wind Dir Waves Ship Positions

Hayataka Maru

Last reported at 2017-Dec-16 08:36 UTC. Time now 2017-Dec-16 20:57 UTC.
Position N 34°46' E 134°39'.

Length 37 m.

MMSI: 431301625.

Date/timePositionNaut miles runAvg speedWind from/ knotsBaromVisibWave heightAir tempDewpointWater temp
2017-Dec-16 08:36N 34°46' E 134°39'14 9.6
2017-Dec-16 07:09N 34°45' E 134°22'0 0.3
2017-Dec-16 06:55N 34°45' E 134°22'5 5.6
2017-Dec-16 06:02N 34°43' E 134°28'010.7
2017-Dec-16 06:00N 34°43' E 134°28'611.1
2017-Dec-16 05:30N 34°44' E 134°35'4 1.1
2017-Dec-16 01:56N 34°46' E 134°39'1 0.7
2017-Dec-16 00:04N 34°47' E 134°38'0 0.0
2017-Dec-15 22:59N 34°47' E 134°38'0 0.3
2017-Dec-15 22:20N 34°47' E 134°38'1 4.2
2017-Dec-15 22:00N 34°45' E 134°38'9 0.9
2017-Dec-15 12:08N 34°42' E 134°48'1 9.4
2017-Dec-15 12:00N 34°41' E 134°49'1 0.9
2017-Dec-15 10:31N 34°42' E 134°50'0 1.4
2017-Dec-15 10:30N 34°42' E 134°50'3 5.3
2017-Dec-15 10:00N 34°40' E 134°48'1 1.2
2017-Dec-15 09:30N 34°40' E 134°47'4 2.1
2017-Dec-15 07:39N 34°43' E 134°51'1 2.2
2017-Dec-15 07:23N 34°43' E 134°50'0 0.0
2017-Dec-15 06:52N 34°43' E 134°50'0 0.6
2017-Dec-15 06:28N 34°43' E 134°50'10 0.5
2017-Dec-14 09:25N 34°46' E 134°39'1 1.6
2017-Dec-14 08:55N 34°47' E 134°38'1 1.0
2017-Dec-14 08:22N 34°46' E 134°38'2 5.0
2017-Dec-14 07:58N 34°44' E 134°38'2 5.3
2017-Dec-14 07:30N 34°47' E 134°38'1 0.0
2017-Dec-13 09:01N 34°46' E 134°39'510.4
2017-Dec-13 08:34N 34°44' E 134°44'311.3
2017-Dec-13 08:18N 34°42' E 134°47'3 9.1
2017-Dec-13 08:00N 34°42' E 134°50'2 4.5
2017-Dec-13 07:30N 34°40' E 134°48'4 8.4
2017-Dec-13 07:00N 34°42' E 134°44'2 2.2
2017-Dec-13 06:14N 34°43' E 134°46'310.3
2017-Dec-13 05:58N 34°41' E 134°49'2 4.6
2017-Dec-13 05:30N 34°43' E 134°50'0 0.2
2017-Dec-13 05:00N 34°43' E 134°51'3 6.2
2017-Dec-13 04:30N 34°40' E 134°48'1 2.5
2017-Dec-13 04:00N 34°40' E 134°47'611.8
2017-Dec-13 03:30N 34°44' E 134°41'1 1.6
2017-Dec-13 02:35N 34°46' E 134°41'2 5.8
2017-Dec-13 02:17N 34°46' E 134°39'0 1.8
2017-Dec-13 02:00N 34°46' E 134°39'7 7.6
2017-Dec-13 01:08N 34°42' E 134°46'110.6
2017-Dec-13 01:00N 34°42' E 134°47'3 5.9
2017-Dec-13 00:31N 34°43' E 134°51'0 0.2
2017-Dec-13 00:00N 34°43' E 134°51'2 4.3
2017-Dec-12 23:30N 34°41' E 134°49'4 6.6
2017-Dec-12 22:58N 34°44' E 134°47'1 1.4
2017-Dec-12 22:27N 34°44' E 134°48'1 2.3
2017-Dec-12 21:59N 34°43' E 134°49'0 0.0
2017-Dec-12 21:30N 34°43' E 134°49'0 0.1
2017-Dec-12 20:47N 34°43' E 134°48'2 7.4
2017-Dec-12 20:30N 34°43' E 134°46'610.3
2017-Dec-12 19:53N 34°46' E 134°39'1 0.0
2017-Dec-12 06:24N 34°46' E 134°39'2 1.3
2017-Dec-12 04:51N 34°46' E 134°41'0 0.4
2017-Dec-12 04:28N 34°46' E 134°41'3 7.2
2017-Dec-12 04:00N 34°42' E 134°41'2 4.9
2017-Dec-12 03:30N 34°40' E 134°41'1 2.2
2017-Dec-12 03:01N 34°41' E 134°41'5 4.0
2017-Dec-12 01:41N 34°46' E 134°39'2 9.6
2017-Dec-12 01:30N 34°45' E 134°41'1 0.6
2017-Dec-12 00:33N 34°46' E 134°41'1 6.4
2017-Dec-12 00:25N 34°46' E 134°40'2 5.7
2017-Dec-12 00:00N 34°46' E 134°38'1 1.7
2017-Dec-11 23:26N 34°46' E 134°38'2 0.1
2017-Dec-11 04:41N 34°46' E 134°41'1 3.6
2017-Dec-11 04:29N 34°45' E 134°41'4 7.9
2017-Dec-11 04:00N 34°41' E 134°41'1 2.6
2017-Dec-11 03:30N 34°40' E 134°41'4 7.1
2017-Dec-11 02:59N 34°43' E 134°40'3 0.1
2017-Dec-09 10:42N 34°46' E 134°39'33 4.0
2017-Dec-09 02:27N 34°31' E 134°03'1612.3
2017-Dec-09 01:09N 34°39' E 134°20'411.7
2017-Dec-09 00:49N 34°40' E 134°24'411.6
2017-Dec-09 00:29N 34°42' E 134°28'611.4
2017-Dec-08 23:59N 34°44' E 134°35'4 0.2
2017-Dec-08 05:43N 34°46' E 134°39'2 7.9
2017-Dec-08 05:28N 34°45' E 134°41'1 0.5
2017-Dec-08 04:33N 34°46' E 134°41'0 0.3
2017-Dec-08 04:27N 34°46' E 134°41'0 0.4
2017-Dec-08 04:00N 34°46' E 134°41'0 0.1
2017-Dec-08 03:21N 34°46' E 134°41'0 0.1
2017-Dec-08 02:57N 34°46' E 134°41'0 0.2
2017-Dec-08 02:29N 34°46' E 134°41'0 0.0
2017-Dec-08 01:18N 34°46' E 134°41'0 0.0
2017-Dec-08 01:00N 34°46' E 134°41'0 0.0
2017-Dec-08 00:30N 34°46' E 134°41'0 0.0
2017-Dec-07 23:59N 34°46' E 134°41'0 0.1
2017-Dec-07 23:31N 34°46' E 134°41'0 0.0
2017-Dec-07 22:53N 34°46' E 134°41'0 0.0
2017-Dec-07 22:30N 34°46' E 134°41'0 0.0
2017-Dec-07 21:58N 34°46' E 134°41'0 0.2
2017-Dec-07 21:27N 34°46' E 134°41'0 0.2
2017-Dec-07 20:57N 34°46' E 134°41'0 0.0
2017-Dec-07 20:28N 34°46' E 134°41'0 0.2
2017-Dec-07 20:00N 34°46' E 134°41'0 0.0
2017-Dec-07 19:26N 34°46' E 134°41'0 0.1
2017-Dec-07 18:53N 34°46' E 134°41'0 0.1
2017-Dec-07 18:25N 34°46' E 134°41'0 0.0
2017-Dec-07 17:48N 34°46' E 134°41'0 0.4
2017-Dec-07 17:27N 34°46' E 134°41'0 0.2
2017-Dec-07 16:56N 34°46' E 134°41'0 0.1
2017-Dec-07 16:27N 34°46' E 134°41'0 0.0
2017-Dec-07 15:51N 34°46' E 134°41'0 0.1
2017-Dec-07 14:53N 34°46' E 134°41'0 0.1
2017-Dec-07 14:23N 34°46' E 134°41'0 0.0
2017-Dec-07 14:00N 34°46' E 134°41'0 0.1
2017-Dec-07 13:25N 34°46' E 134°41'0 0.1
2017-Dec-07 12:46N 34°46' E 134°41'0 0.1
2017-Dec-07 12:26N 34°46' E 134°41'0 0.0
2017-Dec-07 11:55N 34°46' E 134°41'0 0.1
2017-Dec-07 11:27N 34°46' E 134°41'0 0.2
2017-Dec-07 10:53N 34°46' E 134°41'0 0.1
2017-Dec-07 10:29N 34°46' E 134°41'0 0.0
2017-Dec-07 09:55N 34°46' E 134°41'0 0.2
2017-Dec-07 09:27N 34°46' E 134°41'0 0.1
2017-Dec-07 08:59N 34°46' E 134°41'0 0.1
2017-Dec-07 08:25N 34°46' E 134°41'0 0.1
2017-Dec-07 08:00N 34°46' E 134°41'0 0.0
2017-Dec-07 07:30N 34°46' E 134°41'0 0.1
2017-Dec-07 06:58N 34°46' E 134°41'0 0.0
2017-Dec-07 06:27N 34°46' E 134°41'0 0.3
2017-Dec-07 05:57N 34°46' E 134°41'0 0.1
2017-Dec-07 04:29N 34°46' E 134°41'3 5.4
2017-Dec-07 04:00N 34°43' E 134°41'3 6.8
2017-Dec-07 03:30N 34°40' E 134°41'2 4.9
2017-Dec-07 03:00N 34°42' E 134°40'4 7.5
2017-Dec-07 02:29N 34°46' E 134°39'2 3.5
2017-Dec-07 01:55N 34°46' E 134°41'1 1.7
2017-Dec-07 01:19N 34°46' E 134°40'1 1.3
2017-Dec-07 00:38N 34°46' E 134°39'0 0.1
2017-Dec-07 00:30N 34°46' E 134°39'1 2.5
2017-Dec-06 23:59N 34°46' E 134°38'0 0.2
2017-Dec-06 23:25N 34°46' E 134°38'1 1.1
2017-Dec-06 22:48N 34°47' E 134°38'1 5.2
2017-Dec-06 22:30N 34°45' E 134°37'2 3.4
2017-Dec-06 22:01N 34°44' E 134°39'  

Dump ship's entire track history